createdAt,value
2022-12-03T00:17:27.727Z,91.9
2022-12-03T00:37:27.719Z,91.6
2022-12-03T00:57:27.644Z,91.6
2022-12-03T01:17:27.635Z,91.1
2022-12-03T01:37:27.603Z,91.5
2022-12-03T01:57:27.583Z,91.4
2022-12-03T02:17:27.561Z,91.8
2022-12-03T02:37:27.556Z,91.8
2022-12-03T02:57:27.510Z,92.3
2022-12-03T03:17:27.506Z,91.3
2022-12-03T03:37:27.471Z,91.5
2022-12-03T03:57:27.452Z,90.9
2022-12-03T04:17:27.417Z,90.9
2022-12-03T04:37:27.397Z,91
2022-12-03T04:57:27.377Z,91.4
2022-12-03T05:17:27.349Z,91.2
2022-12-03T05:37:27.322Z,90.4
2022-12-03T05:57:27.290Z,91.1
2022-12-03T06:17:27.289Z,91.5
2022-12-03T06:37:27.262Z,92.2
2022-12-03T06:57:27.235Z,91.4
2022-12-03T07:17:27.228Z,91.4
2022-12-03T07:57:27.175Z,91.1
2022-12-03T08:17:27.146Z,90.4
2022-12-03T08:37:27.152Z,90.5
2022-12-03T08:57:27.109Z,90.2
2022-12-03T09:17:27.100Z,89.6
2022-12-03T09:37:27.075Z,88.8
2022-12-03T09:57:27.059Z,89.2
2022-12-03T10:17:27.022Z,88.7
2022-12-03T10:37:27.028Z,88.2
2022-12-03T10:57:26.967Z,87.4
2022-12-03T11:17:26.963Z,87
2022-12-03T11:37:26.971Z,86.6
2022-12-03T11:57:26.906Z,86.3
2022-12-03T12:17:26.871Z,86.4
2022-12-03T12:37:26.858Z,85.6
2022-12-03T12:57:26.828Z,85.3
2022-12-03T13:17:26.821Z,84.9
2022-12-03T13:37:26.790Z,86.1
2022-12-03T13:57:26.775Z,87
2022-12-03T14:17:26.743Z,87.7
2022-12-03T14:37:26.716Z,88.4
2022-12-03T14:57:26.695Z,88.2
2022-12-03T15:17:31.484Z,88.6
2022-12-03T15:37:26.656Z,87.9
2022-12-03T16:17:26.608Z,87.6
2022-12-03T16:37:26.577Z,87.7
2022-12-03T16:57:31.913Z,87.8
2022-12-03T17:17:26.576Z,88.3
2022-12-03T17:37:26.524Z,88.2
2022-12-03T17:57:26.496Z,88.4
2022-12-03T18:17:26.468Z,88.4
2022-12-03T18:37:26.456Z,88.5
2022-12-03T18:57:26.449Z,88.5
2022-12-03T19:17:26.438Z,88.5
2022-12-03T19:37:26.404Z,88.9
2022-12-03T19:57:26.372Z,89.4
2022-12-03T20:17:26.364Z,89.8
2022-12-03T20:37:26.332Z,89.9
2022-12-03T21:17:26.346Z,89.8
2022-12-03T21:37:26.277Z,89.9
2022-12-03T22:37:26.198Z,89.5
2022-12-03T22:57:26.177Z,90
2022-12-03T23:37:26.133Z,90
2022-12-03T23:57:26.112Z,90.1
